createdAt,value
2023-01-19T00:01:27.849Z,15.40
2023-01-19T00:03:55.756Z,13.60
2023-01-19T00:06:23.664Z,14.27
2023-01-19T00:08:51.505Z,15.00
2023-01-19T00:11:20.061Z,13.98
2023-01-19T00:13:50.651Z,13.50
2023-01-19T00:16:22.440Z,15.13
2023-01-19T00:18:51.950Z,14.73
2023-01-19T00:21:21.497Z,15.77
2023-01-19T00:23:52.511Z,12.63
2023-01-19T00:26:22.148Z,15.40
2023-01-19T00:28:50.812Z,13.70
2023-01-19T00:31:21.982Z,12.63
2023-01-19T00:33:51.766Z,14.07
2023-01-19T00:36:20.946Z,14.30
2023-01-19T00:38:48.719Z,13.60
2023-01-19T00:41:17.077Z,12.85
2023-01-19T00:43:44.160Z,12.73
2023-01-19T00:46:12.142Z,12.75
2023-01-19T00:48:41.519Z,12.27
2023-01-19T00:51:09.380Z,12.97
2023-01-19T00:53:37.167Z,12.60
2023-01-19T00:56:05.307Z,12.50
2023-01-19T00:58:33.230Z,12.50
2023-01-19T01:01:03.741Z,11.85
2023-01-19T01:03:32.069Z,11.70
2023-01-19T01:06:01.397Z,11.82
2023-01-19T01:08:29.289Z,11.37
2023-01-19T01:10:57.239Z,12.52
2023-01-19T01:13:28.077Z,12.38
2023-01-19T01:15:57.170Z,11.63
2023-01-19T01:18:26.003Z,11.68
2023-01-19T01:20:56.087Z,12.00
2023-01-19T01:23:25.699Z,13.48
2023-01-19T01:25:53.553Z,14.35
2023-01-19T01:28:21.724Z,12.38
2023-01-19T01:30:53.973Z,12.27
2023-01-19T01:33:40.939Z,12.88
2023-01-19T01:36:11.644Z,11.68
2023-01-19T01:41:09.802Z,11.53
2023-01-19T01:43:46.412Z,12.93
2023-01-19T01:46:16.224Z,11.85
2023-01-19T01:48:49.861Z,13.32
2023-01-19T01:51:25.352Z,12.43
2023-01-19T01:54:02.392Z,12.90
2023-01-19T01:56:35.106Z,13.32
2023-01-19T01:59:07.639Z,13.20
2023-01-19T02:01:54.017Z,13.23
2023-01-19T02:04:22.948Z,15.60
2023-01-19T02:07:09.019Z,13.00
2023-01-19T02:09:56.589Z,13.00
2023-01-19T02:12:43.153Z,14.90
2023-01-19T02:15:18.679Z,13.10
2023-01-19T02:17:47.152Z,12.95
2023-01-19T02:20:15.647Z,12.85
2023-01-19T02:22:49.348Z,12.43
2023-01-19T02:25:20.484Z,13.75
2023-01-19T02:27:49.019Z,14.43
2023-01-19T02:30:18.181Z,12.55
2023-01-19T02:32:46.153Z,12.87
2023-01-19T02:35:14.575Z,13.55
2023-01-19T02:37:44.904Z,13.48
2023-01-19T02:40:15.615Z,15.25
2023-01-19T02:42:49.546Z,13.93
2023-01-19T02:45:22.950Z,13.20
2023-01-19T02:47:53.588Z,14.25
2023-01-19T02:50:49.386Z,13.50
2023-01-19T02:53:54.644Z,13.15
2023-01-19T02:56:47.308Z,12.68
2023-01-19T02:59:30.044Z,12.98
2023-01-19T03:02:13.863Z,12.23
2023-01-19T03:04:59.456Z,12.02
2023-01-19T03:07:39.993Z,11.93
2023-01-19T03:10:15.966Z,12.40
2023-01-19T03:12:48.039Z,12.52
2023-01-19T03:15:22.742Z,12.90
2023-01-19T03:17:52.969Z,13.52
2023-01-19T03:20:24.721Z,13.05
2023-01-19T03:22:56.921Z,13.80
2023-01-19T03:25:26.187Z,12.60
2023-01-19T03:27:58.271Z,13.50
2023-01-19T03:30:30.415Z,12.25
2023-01-19T03:33:03.235Z,13.73
2023-01-19T03:35:34.258Z,13.20
2023-01-19T03:38:08.669Z,12.82
2023-01-19T03:40:37.976Z,12.65
2023-01-19T03:43:06.399Z,13.03
2023-01-19T03:45:39.527Z,13.63
2023-01-19T03:48:08.646Z,13.88
2023-01-19T03:50:36.645Z,10.25
2023-01-19T03:53:08.543Z,13.32
2023-01-19T03:55:38.863Z,13.88
2023-01-19T03:58:07.406Z,13.80
2023-01-19T04:00:37.050Z,13.68
2023-01-19T04:03:05.575Z,13.43
2023-01-19T04:05:34.363Z,13.38
2023-01-19T04:08:02.250Z,14.35
2023-01-19T04:10:30.106Z,13.70
2023-01-19T04:12:59.677Z,13.20
2023-01-19T04:15:27.839Z,15.77
2023-01-19T04:17:58.922Z,14.32
2023-01-19T04:20:27.337Z,13.70
2023-01-19T04:22:56.090Z,13.88
2023-01-19T04:25:24.166Z,13.50
2023-01-19T04:27:53.144Z,13.05
2023-01-19T04:30:21.214Z,12.70
2023-01-19T04:32:49.163Z,12.35
2023-01-19T04:35:18.603Z,12.65
2023-01-19T04:37:46.483Z,11.05
2023-01-19T04:40:14.407Z,12.18
2023-01-19T04:42:44.881Z,12.90
2023-01-19T04:45:13.438Z,12.23
2023-01-19T04:47:42.645Z,11.52
2023-01-19T04:50:11.734Z,12.20
2023-01-19T04:52:40.951Z,11.93
2023-01-19T04:55:09.798Z,9.70
2023-01-19T04:57:37.715Z,12.43
2023-01-19T05:00:07.599Z,13.20
2023-01-19T05:02:35.636Z,12.48
2023-01-19T05:05:05.827Z,12.45
2023-01-19T05:10:02.849Z,12.02
2023-01-19T05:12:30.853Z,12.20
2023-01-19T05:14:58.890Z,11.27
2023-01-19T05:17:27.100Z,13.55
2023-01-19T05:19:54.904Z,13.20
2023-01-19T05:22:22.823Z,11.10
2023-01-19T05:24:50.657Z,10.65
2023-01-19T05:27:19.965Z,11.45
2023-01-19T05:29:47.887Z,9.48
2023-01-19T05:32:15.850Z,12.02
2023-01-19T05:34:43.808Z,11.52
2023-01-19T05:37:11.759Z,12.20
2023-01-19T05:39:39.607Z,10.90
2023-01-19T05:42:07.616Z,12.30
2023-01-19T05:44:36.921Z,12.35
2023-01-19T05:47:05.346Z,11.77
2023-01-19T05:49:33.129Z,12.07
2023-01-19T05:52:01.020Z,13.63
2023-01-19T05:54:28.959Z,11.73
2023-01-19T05:56:57.048Z,12.30
2023-01-19T05:59:25.271Z,12.57
2023-01-19T06:01:55.225Z,12.57
2023-01-19T06:04:23.376Z,12.77
2023-01-19T06:06:52.208Z,12.38
2023-01-19T06:09:20.206Z,13.65
2023-01-19T06:11:48.644Z,12.48
2023-01-19T06:14:16.614Z,12.07
2023-01-19T06:16:44.520Z,12.30
2023-01-19T06:19:13.857Z,12.10
2023-01-19T06:21:41.748Z,11.90
2023-01-19T06:24:11.067Z,12.27
2023-01-19T06:26:39.701Z,12.10
2023-01-19T06:29:07.577Z,11.93
2023-01-19T06:31:35.773Z,12.32
2023-01-19T06:34:03.735Z,12.57
2023-01-19T06:36:33.037Z,11.85
2023-01-19T06:39:03.252Z,11.37
2023-01-19T06:43:58.819Z,12.93
2023-01-19T06:46:27.432Z,11.90
2023-01-19T06:48:55.655Z,12.30
2023-01-19T06:51:24.102Z,9.77
2023-01-19T06:53:53.296Z,8.95
2023-01-19T06:56:21.186Z,13.07
2023-01-19T06:58:50.402Z,9.50
2023-01-19T07:01:18.437Z,10.98
2023-01-19T07:03:47.064Z,8.77
2023-01-19T07:06:15.122Z,8.88
2023-01-19T07:08:43.080Z,10.52
2023-01-19T07:11:22.266Z,9.18
2023-01-19T07:13:57.659Z,11.02
2023-01-19T07:16:25.855Z,9.75
2023-01-19T07:18:53.939Z,9.13
2023-01-19T07:21:22.486Z,9.02
2023-01-19T07:23:50.626Z,9.88
2023-01-19T07:26:21.801Z,9.88
2023-01-19T07:28:50.378Z,11.23
2023-01-19T07:31:19.076Z,10.05
2023-01-19T07:33:48.097Z,11.35
2023-01-19T07:36:16.146Z,10.52
2023-01-19T07:38:44.010Z,11.90
2023-01-19T07:41:12.721Z,12.88
2023-01-19T07:43:41.995Z,12.43
2023-01-19T07:46:09.909Z,13.63
2023-01-19T07:48:37.858Z,12.43
2023-01-19T07:51:10.974Z,12.80
2023-01-19T07:53:41.887Z,14.18
2023-01-19T07:56:10.155Z,12.95
2023-01-19T07:58:38.246Z,15.73
2023-01-19T08:01:09.488Z,12.18
2023-01-19T08:03:38.113Z,14.48
2023-01-19T08:06:07.270Z,14.55
2023-01-19T08:08:35.721Z,13.35
2023-01-19T08:11:03.729Z,14.55
2023-01-19T08:13:31.646Z,14.77
2023-01-19T08:15:59.630Z,16.38
2023-01-19T08:18:28.961Z,15.13
2023-01-19T08:20:57.066Z,17.00
2023-01-19T08:23:24.894Z,16.13
2023-01-19T08:25:52.896Z,17.38
2023-01-19T08:28:21.579Z,18.63
2023-01-19T08:30:54.242Z,19.27
2023-01-19T08:33:23.301Z,17.23
2023-01-19T08:35:54.406Z,17.80
2023-01-19T08:38:22.787Z,17.27
2023-01-19T08:40:50.780Z,15.60
2023-01-19T08:43:19.206Z,17.40
2023-01-19T08:45:51.713Z,17.52
2023-01-19T08:48:22.110Z,15.50
2023-01-19T08:50:51.525Z,15.70
2023-01-19T08:53:23.536Z,15.25
2023-01-19T08:55:55.221Z,14.85
2023-01-19T08:58:23.045Z,15.75
2023-01-19T09:00:52.527Z,15.80
2023-01-19T09:03:21.605Z,14.60
2023-01-19T09:05:50.514Z,15.32
2023-01-19T09:08:19.078Z,16.05
2023-01-19T09:10:50.096Z,14.43
2023-01-19T09:13:19.301Z,15.25
2023-01-19T09:15:47.408Z,13.35
2023-01-19T09:18:19.245Z,14.13
2023-01-19T09:20:49.600Z,12.98
2023-01-19T09:23:19.720Z,13.85
2023-01-19T09:28:18.676Z,13.55
2023-01-19T09:30:46.555Z,13.82
2023-01-19T09:33:16.456Z,14.05
2023-01-19T09:35:46.045Z,14.13
2023-01-19T09:38:15.264Z,14.35
2023-01-19T09:40:44.659Z,12.55
2023-01-19T09:43:20.137Z,13.35
2023-01-19T09:45:53.044Z,13.77
2023-01-19T09:48:40.256Z,13.88
2023-01-19T09:51:13.669Z,12.93
2023-01-19T09:53:52.008Z,13.27
2023-01-19T09:56:21.581Z,13.20
2023-01-19T09:58:52.054Z,13.52
2023-01-19T10:01:38.122Z,12.35
2023-01-19T10:04:39.843Z,12.93
2023-01-19T10:07:17.289Z,14.98
2023-01-19T10:10:10.331Z,10.98
2023-01-19T10:12:51.215Z,11.65
2023-01-19T10:15:34.077Z,10.70
2023-01-19T10:18:13.189Z,8.20
2023-01-19T10:20:47.329Z,8.48
2023-01-19T10:23:31.573Z,8.32
2023-01-19T10:26:02.892Z,8.00
2023-01-19T10:28:31.707Z,8.60
2023-01-19T10:31:01.429Z,6.70
2023-01-19T10:33:29.864Z,7.97
2023-01-19T10:35:57.753Z,6.88
2023-01-19T10:38:28.003Z,7.40
2023-01-19T10:41:04.582Z,7.00
2023-01-19T10:43:38.664Z,7.53
2023-01-19T10:46:09.116Z,7.57
2023-01-19T10:48:40.425Z,6.40
2023-01-19T10:51:09.663Z,7.00
2023-01-19T10:53:38.301Z,6.53
2023-01-19T10:56:18.425Z,5.93
2023-01-19T10:58:46.354Z,5.80
2023-01-19T11:01:18.950Z,6.32
2023-01-19T11:03:47.558Z,5.57
2023-01-19T11:06:30.094Z,5.40
2023-01-19T11:09:13.780Z,5.47
2023-01-19T11:11:48.650Z,6.55
2023-01-19T11:14:20.522Z,6.50
2023-01-19T11:16:55.792Z,9.05
2023-01-19T11:19:28.386Z,8.60
2023-01-19T11:22:11.963Z,6.68
2023-01-19T11:24:40.437Z,5.13
2023-01-19T11:27:09.314Z,4.88
2023-01-19T11:29:39.078Z,5.28
2023-01-19T11:32:22.372Z,5.50
2023-01-19T11:34:51.130Z,7.30
2023-01-19T11:37:31.182Z,7.85
2023-01-19T11:40:02.885Z,6.82
2023-01-19T11:42:34.436Z,8.55
2023-01-19T11:45:12.448Z,8.90
2023-01-19T11:47:44.641Z,6.78
2023-01-19T11:50:23.478Z,6.88
2023-01-19T11:52:56.434Z,6.38
2023-01-19T11:55:32.379Z,6.13
2023-01-19T11:58:00.796Z,5.25
2023-01-19T12:00:36.205Z,6.43
2023-01-19T12:03:13.301Z,6.22
2023-01-19T12:05:48.298Z,5.50
2023-01-19T12:08:20.130Z,6.05
2023-01-19T12:10:50.319Z,6.57
2023-01-19T12:15:54.544Z,6.03
2023-01-19T12:18:27.390Z,8.05
2023-01-19T12:20:58.767Z,7.40
2023-01-19T12:23:39.837Z,9.40
2023-01-19T12:26:27.858Z,6.25
2023-01-19T12:29:00.313Z,6.40
2023-01-19T12:31:28.675Z,6.95
2023-01-19T12:34:31.291Z,7.07
2023-01-19T12:37:04.116Z,10.00
2023-01-19T12:39:33.294Z,8.60
2023-01-19T12:42:14.561Z,9.32
2023-01-19T12:44:44.600Z,9.05
2023-01-19T12:47:22.231Z,10.02
2023-01-19T12:49:53.649Z,12.98
2023-01-19T12:52:28.183Z,11.27
2023-01-19T12:55:04.043Z,14.75
2023-01-19T12:57:37.039Z,16.80
2023-01-19T13:00:09.161Z,16.05
2023-01-19T13:02:47.516Z,14.15
2023-01-19T13:05:20.187Z,21.80
2023-01-19T13:08:16.913Z,18.55
2023-01-19T13:11:10.041Z,16.17
2023-01-19T13:13:40.036Z,17.45
2023-01-19T13:16:41.131Z,16.80
2023-01-19T13:19:18.070Z,15.80
2023-01-19T13:21:49.630Z,18.95
2023-01-19T13:24:22.318Z,20.42
2023-01-19T13:26:57.807Z,15.05
2023-01-19T13:29:31.157Z,13.32
2023-01-19T13:32:03.402Z,16.08
2023-01-19T13:34:36.671Z,21.73
2023-01-19T13:37:09.239Z,15.43
2023-01-19T13:39:41.625Z,20.33
2023-01-19T13:42:17.325Z,15.98
2023-01-19T13:44:52.440Z,19.38
2023-01-19T13:47:24.254Z,18.92
2023-01-19T13:49:56.886Z,13.30
2023-01-19T13:52:27.555Z,19.50
2023-01-19T13:54:59.768Z,18.33
2023-01-19T13:57:30.425Z,13.57
2023-01-19T14:00:09.243Z,15.43
2023-01-19T14:02:39.990Z,13.07
2023-01-19T14:05:15.283Z,21.48
2023-01-19T14:07:44.812Z,17.63
2023-01-19T14:10:16.766Z,17.27
2023-01-19T14:12:58.475Z,15.52
2023-01-19T14:15:27.558Z,16.52
2023-01-19T14:18:23.838Z,14.40
2023-01-19T14:20:57.224Z,18.58
2023-01-19T14:23:44.957Z,15.90
2023-01-19T14:26:43.256Z,19.83
2023-01-19T14:29:24.868Z,81.70
2023-01-19T14:31:54.459Z,22.58
2023-01-19T14:34:36.676Z,25.42
2023-01-19T14:37:07.064Z,19.05
2023-01-19T14:39:37.004Z,21.13
2023-01-19T14:42:07.717Z,19.00
2023-01-19T14:44:39.521Z,17.83
2023-01-19T14:47:21.853Z,20.83
2023-01-19T14:49:49.963Z,17.35
2023-01-19T14:52:27.548Z,18.15
2023-01-19T14:54:58.312Z,18.25
2023-01-19T14:57:26.548Z,19.00
2023-01-19T14:59:55.765Z,15.98
2023-01-19T15:02:24.019Z,22.70
2023-01-19T15:04:55.246Z,17.33
2023-01-19T15:07:26.334Z,17.08
2023-01-19T15:09:54.449Z,22.15
2023-01-19T15:12:28.945Z,20.33
2023-01-19T15:14:57.156Z,18.45
2023-01-19T15:17:26.431Z,21.98
2023-01-19T15:19:55.161Z,19.30
2023-01-19T15:22:26.831Z,18.50
2023-01-19T15:24:57.563Z,19.27
2023-01-19T15:27:27.808Z,20.88
2023-01-19T15:29:55.747Z,23.77
2023-01-19T15:32:23.536Z,23.35
2023-01-19T15:34:51.489Z,26.80
2023-01-19T15:37:19.671Z,27.75
2023-01-19T15:39:47.692Z,32.00
2023-01-19T15:42:15.989Z,23.67
2023-01-19T15:44:45.447Z,30.48
2023-01-19T15:47:13.459Z,26.63
2023-01-19T15:49:41.301Z,25.63
2023-01-19T15:52:09.148Z,25.60
2023-01-19T15:54:37.028Z,28.77
2023-01-19T15:57:06.668Z,27.50
2023-01-19T15:59:34.637Z,21.70
2023-01-19T16:02:04.636Z,31.95
2023-01-19T16:04:32.697Z,23.15
2023-01-19T16:07:00.575Z,29.55
2023-01-19T16:09:28.520Z,30.33
2023-01-19T16:11:57.260Z,25.85
2023-01-19T16:14:25.276Z,24.52
2023-01-19T16:16:53.101Z,20.13
2023-01-19T16:19:22.281Z,21.45
2023-01-19T16:21:50.223Z,26.33
2023-01-19T16:24:18.136Z,29.65
2023-01-19T16:26:45.955Z,28.45
2023-01-19T16:29:13.964Z,30.38
2023-01-19T16:31:43.516Z,33.22
2023-01-19T16:34:11.509Z,36.13
2023-01-19T16:36:42.851Z,26.98
2023-01-19T16:39:13.746Z,28.63
2023-01-19T16:41:42.643Z,30.05
2023-01-19T16:44:12.119Z,32.25
2023-01-19T16:46:42.963Z,26.13
2023-01-19T16:49:14.045Z,28.42
2023-01-19T16:51:43.407Z,35.95
2023-01-19T16:54:13.938Z,31.67
2023-01-19T16:56:42.363Z,31.63
2023-01-19T16:59:12.955Z,36.20
2023-01-19T17:01:41.382Z,27.55
2023-01-19T17:04:09.778Z,27.23
2023-01-19T17:06:37.809Z,30.90
2023-01-19T17:09:07.739Z,30.45
2023-01-19T17:11:35.612Z,32.75
2023-01-19T17:14:05.470Z,30.25
2023-01-19T17:16:34.989Z,28.63
2023-01-19T17:19:04.228Z,28.42
2023-01-19T17:21:32.277Z,34.33
2023-01-19T17:24:00.408Z,32.38
2023-01-19T17:26:31.018Z,30.33
2023-01-19T17:28:59.649Z,35.70
2023-01-19T17:31:27.804Z,35.88
2023-01-19T17:33:55.692Z,38.38
2023-01-19T17:36:25.303Z,38.10
2023-01-19T17:38:54.811Z,35.38
2023-01-19T17:41:24.390Z,34.78
2023-01-19T17:43:54.236Z,39.30
2023-01-19T17:46:24.169Z,41.25
2023-01-19T17:48:53.404Z,33.38
2023-01-19T17:51:22.796Z,32.97
2023-01-19T17:53:51.599Z,40.60
2023-01-19T17:56:22.100Z,37.40
2023-01-19T17:58:50.485Z,33.83
2023-01-19T18:01:22.091Z,34.45
2023-01-19T18:03:50.596Z,37.45
2023-01-19T18:06:18.693Z,45.45
2023-01-19T18:08:48.709Z,36.60
2023-01-19T18:11:18.664Z,41.47
2023-01-19T18:13:49.089Z,35.55
2023-01-19T18:16:21.514Z,38.78
2023-01-19T18:18:50.211Z,44.85
2023-01-19T18:21:20.174Z,37.75
2023-01-19T18:23:48.386Z,44.03
2023-01-19T18:26:19.491Z,41.03
2023-01-19T18:28:47.919Z,44.28
2023-01-19T18:31:18.408Z,42.15
2023-01-19T18:33:48.555Z,51.00
2023-01-19T18:38:44.591Z,38.80
2023-01-19T18:41:14.204Z,38.25
2023-01-19T18:43:42.431Z,37.47
2023-01-19T18:46:11.023Z,35.97
2023-01-19T18:48:39.713Z,37.60
2023-01-19T18:51:10.563Z,40.78
2023-01-19T18:53:39.358Z,39.17
2023-01-19T18:56:08.132Z,39.78
2023-01-19T18:58:38.854Z,41.95
2023-01-19T19:01:19.141Z,38.40
2023-01-19T19:03:47.273Z,41.65
2023-01-19T19:06:18.453Z,49.97
2023-01-19T19:08:46.323Z,32.95
2023-01-19T19:11:14.422Z,32.20
2023-01-19T19:13:42.407Z,34.10
2023-01-19T19:16:12.676Z,40.13
2023-01-19T19:18:41.373Z,33.58
2023-01-19T19:21:10.932Z,31.48
2023-01-19T19:23:40.407Z,36.42
2023-01-19T19:26:10.447Z,37.97
2023-01-19T19:28:39.809Z,34.88
2023-01-19T19:31:10.104Z,38.63
2023-01-19T19:33:39.866Z,38.75
2023-01-19T19:36:09.140Z,34.25
2023-01-19T19:38:37.760Z,35.40
2023-01-19T19:41:08.558Z,34.80
2023-01-19T19:43:37.471Z,41.42
2023-01-19T19:46:07.414Z,35.05
2023-01-19T19:48:37.567Z,43.75
2023-01-19T19:51:17.436Z,44.95
2023-01-19T19:53:46.501Z,43.90
2023-01-19T19:56:16.400Z,43.58
2023-01-19T19:58:44.369Z,39.85
2023-01-19T20:01:14.002Z,41.88
2023-01-19T20:03:42.461Z,60.83
2023-01-19T20:06:12.800Z,113.18
2023-01-19T20:08:40.900Z,42.13
2023-01-19T20:11:11.038Z,34.83
2023-01-19T20:16:11.167Z,40.47
2023-01-19T20:18:40.143Z,56.65
2023-01-19T20:21:16.519Z,71.70
2023-01-19T20:23:45.559Z,69.75
2023-01-19T20:26:15.545Z,39.90
2023-01-19T20:28:45.324Z,34.25
2023-01-19T20:31:15.673Z,38.60
2023-01-19T20:33:44.381Z,41.05
2023-01-19T20:36:13.237Z,41.20
2023-01-19T20:38:41.929Z,45.50
2023-01-19T20:41:12.082Z,34.53
2023-01-19T20:43:40.712Z,32.75
2023-01-19T20:46:10.060Z,38.55
2023-01-19T20:48:39.317Z,37.80
2023-01-19T20:51:09.373Z,40.33
2023-01-19T20:53:38.245Z,34.85
2023-01-19T20:56:06.878Z,38.58
2023-01-19T20:58:35.377Z,40.38
2023-01-19T21:01:12.775Z,32.33
2023-01-19T21:03:41.010Z,34.47
2023-01-19T21:06:09.325Z,36.67
2023-01-19T21:08:37.621Z,31.00
2023-01-19T21:11:06.308Z,41.83
2023-01-19T21:13:35.079Z,37.42
2023-01-19T21:16:03.933Z,31.48
2023-01-19T21:18:33.388Z,36.22
2023-01-19T21:21:01.278Z,31.23
2023-01-19T21:23:29.813Z,39.88
2023-01-19T21:25:59.308Z,37.65
2023-01-19T21:28:28.506Z,33.90
2023-01-19T21:30:58.220Z,40.70
2023-01-19T21:33:26.151Z,39.00
2023-01-19T21:35:57.135Z,36.97
2023-01-19T21:38:26.792Z,34.30
2023-01-19T21:40:55.377Z,35.22
2023-01-19T21:43:23.839Z,35.60
2023-01-19T21:45:52.306Z,34.47
2023-01-19T21:48:20.798Z,31.38
2023-01-19T21:50:58.620Z,32.35
2023-01-19T21:53:26.551Z,33.20
2023-01-19T21:55:54.399Z,33.15
2023-01-19T21:58:22.899Z,31.25
2023-01-19T22:00:51.288Z,32.85
2023-01-19T22:03:19.285Z,34.13
2023-01-19T22:05:47.244Z,35.65
2023-01-19T22:08:16.424Z,32.85
2023-01-19T22:10:44.283Z,32.22
2023-01-19T22:13:12.160Z,34.60
2023-01-19T22:15:40.027Z,31.70
2023-01-19T22:18:07.937Z,30.73
2023-01-19T22:20:36.008Z,31.20
2023-01-19T22:23:03.917Z,31.50
2023-01-19T22:25:34.800Z,28.50
2023-01-19T22:28:02.625Z,32.50
2023-01-19T22:30:30.682Z,30.42
2023-01-19T22:32:58.560Z,28.55
2023-01-19T22:35:26.534Z,30.92
2023-01-19T22:37:54.471Z,29.52
2023-01-19T22:40:22.379Z,29.65
2023-01-19T22:42:51.632Z,31.40
2023-01-19T22:45:19.849Z,33.13
2023-01-19T22:47:47.797Z,29.33
2023-01-19T22:50:16.267Z,34.25
2023-01-19T22:52:44.114Z,35.75
2023-01-19T22:55:12.285Z,30.48
2023-01-19T22:57:40.459Z,29.25
2023-01-19T23:00:11.494Z,34.10
2023-01-19T23:02:39.434Z,29.63
2023-01-19T23:05:08.054Z,28.60
2023-01-19T23:07:35.934Z,31.42
2023-01-19T23:10:03.806Z,29.63
2023-01-19T23:12:31.775Z,31.50
2023-01-19T23:14:59.854Z,33.70
2023-01-19T23:17:29.153Z,31.27
2023-01-19T23:19:57.212Z,31.87
2023-01-19T23:22:25.098Z,32.78
2023-01-19T23:24:52.927Z,30.10
2023-01-19T23:27:20.724Z,35.10
2023-01-19T23:29:48.568Z,32.00
2023-01-19T23:32:16.372Z,32.88
2023-01-19T23:34:45.590Z,31.83
2023-01-19T23:37:13.431Z,29.57
2023-01-19T23:39:41.235Z,31.90
2023-01-19T23:42:09.139Z,34.92
2023-01-19T23:44:37.041Z,40.58
2023-01-19T23:47:05.007Z,34.15
2023-01-19T23:49:32.987Z,37.22
2023-01-19T23:52:02.340Z,40.92
2023-01-19T23:54:30.232Z,31.75
2023-01-19T23:56:58.086Z,41.85
2023-01-19T23:59:25.888Z,43.55
